Time;durP1;ratioP1;P1;durP2;ratioP2;P2;SDS_P1;SDS_P2;PMS_P1;PMS_P2;Temp;Humidity;BMP_temperature;BMP_pressure;BME280_temperature;BME280_humidity;BME280_pressure;Samples;Min_cycle;Max_cycle;Signal;HPM_P1;HPM_P2
2020/12/07 00:00:10;;;;;;;58.03;33.03;;;4.30;93.30;;;;;;5030914;28;20064;-73
2020/12/07 00:02:36;;;;;;;53.37;32.47;;;4.40;93.50;;;;;;5023735;28;20045;-72
2020/12/07 00:05:03;;;;;;;61.10;33.47;;;4.40;93.60;;;;;;5030189;28;20034;-72
2020/12/07 00:07:28;;;;;;;58.17;33.07;;;4.40;93.50;;;;;;5029287;28;20037;-72
2020/12/07 00:09:54;;;;;;;59.13;32.53;;;4.40;93.60;;;;;;5030812;28;20509;-72
2020/12/07 00:12:25;;;;;;;63.17;32.13;;;4.50;93.60;;;;;;5028603;28;20053;-72
2020/12/07 00:14:52;;;;;;;52.73;30.43;;;4.50;93.70;;;;;;5030879;28;20037;-72
2020/12/07 00:17:21;;;;;;;54.90;31.00;;;4.60;93.80;;;;;;5028971;28;20037;-72
2020/12/07 00:19:47;;;;;;;51.93;29.97;;;4.60;93.60;;;;;;5022940;28;20044;-71
2020/12/07 00:22:19;;;;;;;56.17;30.07;;;4.60;93.70;;;;;;5029935;28;20471;-71
2020/12/07 00:24:44;;;;;;;62.10;30.70;;;4.60;93.60;;;;;;5030700;28;20044;-71
2020/12/07 00:27:10;;;;;;;50.47;28.53;;;4.60;93.70;;;;;;5030324;28;20120;-72
2020/12/07 00:29:36;;;;;;;53.43;29.87;;;4.70;93.80;;;;;;5031123;28;20048;-71
2020/12/07 00:32:01;;;;;;;56.07;30.83;;;4.80;93.80;;;;;;5034160;28;20048;-71
2020/12/07 00:34:27;;;;;;;49.97;28.90;;;4.80;93.80;;;;;;5034031;28;20124;-71
2020/12/07 00:36:53;;;;;;;51.40;29.83;;;4.80;93.80;;;;;;5033331;28;20045;-72
2020/12/07 00:39:18;;;;;;;55.80;30.27;;;4.90;93.90;;;;;;5016375;28;20068;-71
2020/12/07 00:41:44;;;;;;;55.90;30.10;;;4.90;93.80;;;;;;5032782;28;21128;-71
2020/12/07 00:44:10;;;;;;;53.93;29.27;;;5.00;93.90;;;;;;5034460;28;20041;-72
2020/12/07 00:46:39;;;;;;;58.60;30.23;;;5.00;93.90;;;;;;5016513;28;20057;-71
2020/12/07 00:49:05;;;;;;;53.77;29.17;;;5.00;93.80;;;;;;5034332;28;20490;-72
2020/12/07 00:51:31;;;;;;;56.07;28.90;;;5.10;93.90;;;;;;5034237;28;20026;-72
2020/12/07 00:53:57;;;;;;;55.57;29.23;;;5.10;93.80;;;;;;5032363;28;20029;-71
2020/12/07 00:56:23;;;;;;;55.43;28.43;;;5.10;93.70;;;;;;5032818;28;20032;-72
2020/12/07 00:58:49;;;;;;;54.83;28.40;;;5.10;93.70;;;;;;5032497;28;20117;-72
2020/12/07 01:01:16;;;;;;;53.10;29.87;;;5.10;93.90;;;;;;5033241;28;20037;-69
2020/12/07 01:03:42;;;;;;;48.67;26.50;;;5.10;93.90;;;;;;5031719;28;20560;-70
2020/12/07 01:06:09;;;;;;;49.93;27.53;;;5.10;93.80;;;;;;5032826;28;20033;-69
2020/12/07 01:08:35;;;;;;;53.57;27.93;;;5.00;93.50;;;;;;5032686;28;20456;-68
2020/12/07 01:11:01;;;;;;;51.20;27.20;;;5.00;93.60;;;;;;5032272;28;20124;-69
2020/12/07 01:13:28;;;;;;;60.40;30.03;;;5.00;93.70;;;;;;5033243;28;20034;-68
2020/12/07 01:15:55;;;;;;;67.30;31.20;;;4.90;93.70;;;;;;5033120;28;20041;-68
2020/12/07 01:18:21;;;;;;;53.87;26.77;;;4.90;93.80;;;;;;5032531;28;20510;-68
2020/12/07 01:20:47;;;;;;;63.63;30.97;;;4.90;93.90;;;;;;5016174;28;20029;-68
2020/12/07 01:23:13;;;;;;;66.60;30.07;;;4.90;93.90;;;;;;5031443;28;20042;-69
2020/12/07 01:25:39;;;;;;;59.13;30.17;;;4.90;93.90;;;;;;5015784;28;20033;-69
2020/12/07 01:28:05;;;;;;;57.10;29.07;;;4.90;93.90;;;;;;5015509;28;20061;-69
2020/12/07 01:30:31;;;;;;;56.07;28.03;;;4.90;94.00;;;;;;5015777;28;20065;-68
2020/12/07 01:32:57;;;;;;;52.87;28.50;;;4.90;94.20;;;;;;5031678;28;20045;-68
2020/12/07 01:35:23;;;;;;;49.93;26.03;;;5.00;94.40;;;;;;5031721;28;20553;-69
2020/12/07 01:37:49;;;;;;;50.07;28.10;;;5.10;94.40;;;;;;5015706;28;20120;-69
2020/12/07 01:40:15;;;;;;;50.33;26.77;;;5.10;94.50;;;;;;5033019;28;20040;-69
2020/12/07 01:42:42;;;;;;;51.87;27.20;;;5.20;94.50;;;;;;5014165;28;20030;-70
2020/12/07 01:45:08;;;;;;;46.43;26.43;;;5.20;94.50;;;;;;5031922;28;20053;-69
2020/12/07 01:47:34;;;;;;;48.43;26.67;;;5.30;94.50;;;;;;5032702;28;20092;-69
2020/12/07 01:50:07;;;;;;;46.13;25.50;;;5.40;94.50;;;;;;5031958;28;20494;-69
2020/12/07 01:52:33;;;;;;;46.17;26.20;;;5.40;94.50;;;;;;5032311;28;20030;-69
2020/12/07 01:54:59;;;;;;;45.03;25.53;;;5.50;94.50;;;;;;5015388;28;20426;-69
2020/12/07 01:57:35;;;;;;;41.87;23.37;;;5.50;94.50;;;;;;5032729;28;20064;-68
2020/12/07 02:00:08;;;;;;;42.70;24.50;;;5.60;94.50;;;;;;5031876;28;20125;-69
2020/12/07 02:02:44;;;;;;;41.00;23.90;;;5.60;94.50;;;;;;5032183;28;20124;-77
2020/12/07 02:05:10;;;;;;;41.67;22.67;;;5.70;94.50;;;;;;5031692;28;20037;-78
2020/12/07 02:07:37;;;;;;;39.47;23.17;;;5.70;94.50;;;;;;5031191;28;20149;-77
2020/12/07 02:10:03;;;;;;;42.60;24.40;;;5.80;94.50;;;;;;5031514;28;20033;-78
2020/12/07 02:12:30;;;;;;;39.70;23.57;;;5.80;94.50;;;;;;5030919;28;20029;-77
2020/12/07 02:14:56;;;;;;;38.97;22.93;;;5.80;94.50;;;;;;5031094;28;20044;-78
2020/12/07 02:17:22;;;;;;;37.23;22.63;;;5.90;94.50;;;;;;5031617;28;20026;-78
2020/12/07 02:19:51;;;;;;;37.00;22.77;;;5.90;94.50;;;;;;5030929;28;20044;-76
2020/12/07 02:22:17;;;;;;;39.23;23.40;;;5.90;94.50;;;;;;5030798;28;20513;-77
2020/12/07 02:25:21;;;;;;;37.33;22.57;;;6.00;94.50;;;;;;5010101;28;20030;-77
2020/12/07 02:27:48;;;;;;;39.87;22.57;;;6.00;94.50;;;;;;5028297;28;20520;-78
2020/12/07 02:30:20;;;;;;;35.73;21.40;;;6.10;94.50;;;;;;5030928;28;20030;-77
2020/12/07 02:32:47;;;;;;;35.95;19.92;;;6.10;94.50;;;;;;5030768;28;20065;-78
2020/12/07 02:35:21;;;;;;;34.73;20.40;;;6.20;94.60;;;;;;5015244;28;20042;-77
2020/12/07 02:37:49;;;;;;;34.27;20.97;;;6.20;94.60;;;;;;5031038;28;20045;-78
2020/12/07 02:40:18;;;;;;;32.43;19.70;;;6.30;94.60;;;;;;5030577;28;20068;-77
2020/12/07 02:42:44;;;;;;;34.40;20.80;;;6.30;94.60;;;;;;5031765;28;20502;-78
2020/12/07 02:45:16;;;;;;;33.97;20.10;;;6.30;94.80;;;;;;5014730;28;20083;-77
2020/12/07 02:47:48;;;;;;;31.33;19.50;;;6.40;94.50;;;;;;5030704;28;20051;-78
2020/12/07 02:50:16;;;;;;;32.27;19.27;;;6.40;94.50;;;;;;5030362;28;20041;-78
2020/12/07 02:52:43;;;;;;;32.03;19.00;;;6.40;94.60;;;;;;5030065;28;20029;-77
2020/12/07 02:55:11;;;;;;;30.73;19.87;;;6.50;94.60;;;;;;5030864;28;20037;-78
2020/12/07 02:57:39;;;;;;;29.03;18.70;;;6.50;94.60;;;;;;5030197;28;20029;-78
2020/12/07 03:00:10;;;;;;;34.23;19.37;;;6.50;94.50;;;;;;5031098;28;20044;-76
2020/12/07 03:02:38;;;;;;;27.77;16.93;;;6.60;94.40;;;;;;5029553;28;20076;-69
2020/12/07 03:05:09;;;;;;;32.47;19.10;;;6.60;94.40;;;;;;5030463;28;20030;-69
2020/12/07 03:07:36;;;;;;;28.87;18.80;;;6.60;94.40;;;;;;5029920;28;20045;-69
2020/12/07 03:10:03;;;;;;;31.47;18.93;;;6.60;94.30;;;;;;5030559;28;20499;-68
2020/12/07 03:12:29;;;;;;;32.40;19.10;;;6.60;94.30;;;;;;5029861;28;20033;-69
2020/12/07 03:14:57;;;;;;;29.50;17.87;;;6.60;94.20;;;;;;5013590;28;20033;-69
2020/12/07 03:17:25;;;;;;;28.40;18.63;;;6.60;94.20;;;;;;5030321;28;20075;-69
2020/12/07 03:19:51;;;;;;;29.97;18.73;;;6.60;94.30;;;;;;4997068;28;20029;-68
2020/12/07 03:22:16;;;;;;;26.53;16.67;;;6.60;94.30;;;;;;5029667;28;20520;-69
2020/12/07 03:24:43;;;;;;;29.57;18.17;;;6.60;94.30;;;;;;5030095;28;20109;-68
2020/12/07 03:27:09;;;;;;;31.33;19.13;;;6.60;94.30;;;;;;5029876;28;20379;-69
2020/12/07 03:29:35;;;;;;;30.20;18.40;;;6.60;94.20;;;;;;5030057;28;20092;-69
2020/12/07 03:32:02;;;;;;;29.77;18.30;;;6.60;94.10;;;;;;5029060;28;20041;-69
2020/12/07 03:34:29;;;;;;;32.10;18.97;;;6.60;94.10;;;;;;5030014;28;20041;-69
2020/12/07 03:36:55;;;;;;;29.47;18.07;;;6.50;94.10;;;;;;5029471;28;20044;-68
2020/12/07 03:39:33;;;;;;;30.30;18.77;;;6.50;94.10;;;;;;5015352;28;20041;-68
2020/12/07 03:42:02;;;;;;;28.37;18.23;;;6.50;94.10;;;;;;5028841;28;20038;-70
2020/12/07 03:44:28;;;;;;;29.73;18.60;;;6.50;94.20;;;;;;5029978;28;20035;-69
2020/12/07 03:46:54;;;;;;;29.27;18.43;;;6.50;94.20;;;;;;5029775;28;20037;-69
2020/12/07 03:49:20;;;;;;;29.50;17.70;;;6.50;94.20;;;;;;5029443;28;20045;-69
2020/12/07 03:51:49;;;;;;;29.23;17.40;;;6.60;94.20;;;;;;5029372;28;20042;-68
2020/12/07 03:54:15;;;;;;;29.50;18.00;;;6.60;94.20;;;;;;5029320;28;20391;-69
2020/12/07 03:56:41;;;;;;;26.50;17.37;;;6.60;94.20;;;;;;5029569;28;20033;-69
2020/12/07 03:59:08;;;;;;;28.23;17.13;;;6.60;94.20;;;;;;5013503;28;20036;-69
2020/12/07 04:01:36;;;;;;;28.57;16.70;;;6.60;94.20;;;;;;5012915;28;20380;-77
2020/12/07 04:04:05;;;;;;;27.67;17.20;;;6.60;94.20;;;;;;5029255;28;20024;-78
2020/12/07 04:06:35;;;;;;;28.00;17.33;;;6.60;94.20;;;;;;5029017;28;20033;-78
2020/12/07 04:09:05;;;;;;;26.07;16.27;;;6.60;94.20;;;;;;5029470;28;20038;-79
2020/12/07 04:11:30;;;;;;;25.80;16.83;;;6.60;94.40;;;;;;4998120;28;20060;-78
2020/12/07 04:13:56;;;;;;;28.97;17.43;;;6.60;94.10;;;;;;5028833;28;20490;-78
2020/12/07 04:16:29;;;;;;;27.83;17.50;;;6.60;94.10;;;;;;5031092;28;20044;-72
2020/12/07 04:18:54;;;;;;;28.30;17.97;;;6.60;94.10;;;;;;5029199;28;20414;-71
2020/12/07 04:21:20;;;;;;;27.33;17.00;;;6.60;94.00;;;;;;5030495;28;20034;-72
2020/12/07 04:23:46;;;;;;;27.57;17.43;;;6.60;94.10;;;;;;5029625;28;20049;-72
2020/12/07 04:26:11;;;;;;;27.20;17.40;;;6.60;94.00;;;;;;5029628;28;20072;-72
2020/12/07 04:28:37;;;;;;;27.20;16.60;;;6.60;94.00;;;;;;5029218;28;20061;-72
2020/12/07 04:31:03;;;;;;;28.43;17.07;;;6.60;94.10;;;;;;5030137;28;20044;-72
2020/12/07 04:33:29;;;;;;;23.47;15.10;;;6.60;94.00;;;;;;5028828;28;20115;-72
2020/12/07 04:35:55;;;;;;;26.00;16.53;;;6.70;94.10;;;;;;5028918;28;20064;-71
2020/12/07 04:38:20;;;;;;;27.03;17.10;;;6.70;94.00;;;;;;5030465;28;20029;-73
2020/12/07 04:40:46;;;;;;;29.63;17.17;;;6.70;94.00;;;;;;5030509;28;20131;-72
2020/12/07 04:43:14;;;;;;;28.10;16.97;;;6.70;94.00;;;;;;5029684;28;20132;-72
2020/12/07 04:45:40;;;;;;;26.87;15.50;;;6.70;94.00;;;;;;5030560;28;20038;-72
2020/12/07 04:48:07;;;;;;;25.67;17.07;;;6.70;93.90;;;;;;5029041;28;20052;-72
2020/12/07 04:50:35;;;;;;;25.47;16.80;;;6.70;94.00;;;;;;5029099;28;20052;-72
2020/12/07 04:53:01;;;;;;;26.77;16.40;;;6.70;94.00;;;;;;5028029;28;20046;-71
2020/12/07 04:55:27;;;;;;;27.93;16.83;;;6.70;94.00;;;;;;5012597;28;20049;-72
2020/12/07 04:57:53;;;;;;;28.67;16.00;;;6.70;94.00;;;;;;5030291;28;20065;-72
2020/12/07 05:00:26;;;;;;;25.13;14.50;;;6.70;93.90;;;;;;5010592;28;20045;-71
2020/12/07 05:02:53;;;;;;;25.40;15.33;;;6.70;93.90;;;;;;5026355;28;20038;-72
2020/12/07 05:05:20;;;;;;;25.43;16.50;;;6.70;93.90;;;;;;5029530;28;20038;-72
2020/12/07 05:07:50;;;;;;;26.93;16.47;;;6.70;93.90;;;;;;5030120;28;20042;-72
2020/12/07 05:10:25;;;;;;;25.98;15.95;;;6.70;93.80;;;;;;5025908;28;20077;-72
2020/12/07 05:12:57;;;;;;;25.93;14.97;;;6.80;93.90;;;;;;5030194;28;20041;-68
2020/12/07 05:15:23;;;;;;;27.83;15.77;;;6.80;93.90;;;;;;5026418;28;20106;-68
2020/12/07 05:17:56;;;;;;;22.03;14.80;;;6.80;93.80;;;;;;5033310;28;20059;-68
2020/12/07 05:20:23;;;;;;;27.60;15.47;;;6.80;93.80;;;;;;5033409;28;20041;-68
2020/12/07 05:22:49;;;;;;;26.57;15.27;;;6.90;93.80;;;;;;5032103;28;20030;-68
2020/12/07 05:25:16;;;;;;;23.27;14.83;;;6.90;93.80;;;;;;5032232;28;20048;-72
2020/12/07 05:27:45;;;;;;;24.37;15.43;;;6.80;93.70;;;;;;5032559;28;20037;-72
2020/12/07 05:30:21;;;;;;;26.57;15.40;;;6.90;93.70;;;;;;5031603;28;20494;-72
2020/12/07 05:32:47;;;;;;;24.73;15.17;;;6.90;93.70;;;;;;5012304;28;20407;-73
2020/12/07 05:35:13;;;;;;;25.50;15.40;;;6.90;93.70;;;;;;5013165;28;20617;-73
2020/12/07 05:37:39;;;;;;;24.27;14.77;;;6.90;93.70;;;;;;5013232;28;20137;-73
2020/12/07 05:40:08;;;;;;;25.50;14.40;;;7.00;93.70;;;;;;5012825;28;20274;-73
2020/12/07 05:42:34;;;;;;;25.33;14.73;;;6.90;93.60;;;;;;5012334;28;20030;-72
2020/12/07 05:45:02;;;;;;;24.37;14.00;;;7.00;93.70;;;;;;5021168;28;20049;-73
2020/12/07 05:47:31;;;;;;;24.50;14.30;;;7.00;93.60;;;;;;5052836;28;20052;-72
2020/12/07 05:49:57;;;;;;;22.30;14.30;;;7.00;93.60;;;;;;5052916;28;20036;-73
2020/12/07 05:52:47;;;;;;;22.50;13.90;;;7.00;93.60;;;;;;5052521;28;20406;-73
2020/12/07 05:55:15;;;;;;;24.50;13.48;;;7.00;93.50;;;;;;5051219;28;20076;-72
2020/12/07 05:57:56;;;;;;;25.10;13.70;;;7.10;93.50;;;;;;5046106;28;20055;-73
2020/12/07 06:00:23;;;;;;;23.10;13.30;;;7.10;93.50;;;;;;5039314;28;20091;-72
2020/12/07 06:02:50;;;;;;;23.97;13.87;;;7.10;93.50;;;;;;5024605;28;20037;-72
2020/12/07 06:05:16;;;;;;;22.60;13.57;;;7.10;93.50;;;;;;5040426;28;20401;-74
2020/12/07 06:07:48;;;;;;;23.57;13.57;;;7.10;93.40;;;;;;5040930;28;20129;-74
2020/12/07 06:10:17;;;;;;;23.47;13.37;;;7.10;93.40;;;;;;5045451;28;20132;-75
2020/12/07 06:12:48;;;;;;;24.50;14.03;;;7.20;93.40;;;;;;5030112;28;20033;-75
2020/12/07 06:15:19;;;;;;;20.47;13.33;;;7.20;93.30;;;;;;5027839;28;20045;-72
2020/12/07 06:17:49;;;;;;;26.38;13.45;;;7.20;93.30;;;;;;5026435;28;20037;-75
2020/12/07 06:20:35;;;;;;;22.40;13.48;;;7.20;93.30;;;;;;5030196;28;20124;-74
2020/12/07 06:23:01;;;;;;;22.40;12.93;;;7.20;93.30;;;;;;5026321;28;20060;-74
2020/12/07 06:25:29;;;;;;;22.97;13.07;;;7.30;93.30;;;;;;5032098;28;20029;-74
2020/12/07 06:27:58;;;;;;;23.67;13.30;;;7.30;93.20;;;;;;5030151;28;20046;-75
2020/12/07 06:30:30;;;;;;;22.47;12.47;;;7.30;93.20;;;;;;5029201;28;20033;-72
2020/12/07 06:32:56;;;;;;;22.87;13.17;;;7.30;93.20;;;;;;5030007;28;20030;-75
2020/12/07 06:35:26;;;;;;;19.40;12.13;;;7.30;93.20;;;;;;5031339;28;20052;-74
2020/12/07 06:37:52;;;;;;;22.07;12.50;;;7.30;93.10;;;;;;5028801;28;20084;-72
2020/12/07 06:40:21;;;;;;;21.93;11.90;;;7.30;93.10;;;;;;5018358;28;20046;-74
2020/12/07 06:42:48;;;;;;;23.93;12.73;;;7.40;93.10;;;;;;5019409;28;20061;-75
2020/12/07 06:45:30;;;;;;;21.73;12.63;;;7.40;93.10;;;;;;5030178;28;20049;-74
2020/12/07 06:47:56;;;;;;;21.73;12.63;;;7.40;93.00;;;;;;5011701;28;20037;-75
2020/12/07 06:50:27;;;;;;;20.80;12.33;;;7.40;93.00;;;;;;5031501;28;20080;-75
2020/12/07 06:52:53;;;;;;;20.70;11.67;;;7.40;92.90;;;;;;5029725;28;20080;-75
2020/12/07 06:55:19;;;;;;;24.33;13.77;;;7.40;92.80;;;;;;5029543;28;20529;-75
2020/12/07 06:57:52;;;;;;;21.60;13.40;;;7.50;92.80;;;;;;5030730;28;20037;-74
2020/12/07 07:00:26;;;;;;;22.37;13.00;;;7.50;92.80;;;;;;5030733;28;20091;-78
2020/12/07 07:02:53;;;;;;;20.73;12.33;;;7.50;92.70;;;;;;5031419;28;20503;-77
2020/12/07 07:05:20;;;;;;;19.53;11.10;;;7.60;92.70;;;;;;5031780;28;20033;-78
2020/12/07 07:07:47;;;;;;;22.17;13.00;;;7.60;92.70;;;;;;5031918;28;20530;-77
2020/12/07 07:10:14;;;;;;;20.90;12.60;;;7.60;92.70;;;;;;5031331;28;20446;-77
2020/12/07 07:12:41;;;;;;;22.53;12.60;;;7.60;92.80;;;;;;5029936;28;20398;-78
2020/12/07 07:15:09;;;;;;;20.60;11.70;;;7.60;92.60;;;;;;5031295;28;20037;-78
2020/12/07 07:17:40;;;;;;;22.27;12.90;;;7.70;92.50;;;;;;5031848;28;20054;-77
2020/12/07 07:20:08;;;;;;;22.90;13.25;;;7.70;92.50;;;;;;5030445;28;20038;-78
2020/12/07 07:22:35;;;;;;;20.47;12.40;;;7.70;92.40;;;;;;5029424;28;20437;-77
2020/12/07 07:25:18;;;;;;;24.50;12.20;;;7.70;92.40;;;;;;5023420;28;20098;-77
2020/12/07 07:30:28;;;;;;;20.10;12.63;;;7.70;92.30;;;;;;5029747;28;20041;-78
2020/12/07 07:32:55;;;;;;;23.67;12.17;;;7.70;92.20;;;;;;5029592;28;20034;-78
2020/12/07 07:35:23;;;;;;;21.30;12.27;;;7.70;92.20;;;;;;5029962;28;20059;-77
2020/12/07 07:37:49;;;;;;;21.63;12.77;;;7.70;92.10;;;;;;5030994;28;20057;-78
2020/12/07 07:40:17;;;;;;;25.20;12.73;;;7.80;92.10;;;;;;5012862;28;20060;-77
2020/12/07 07:42:55;;;;;;;20.67;12.60;;;7.80;92.00;;;;;;5028897;28;20132;-78
2020/12/07 07:45:23;;;;;;;21.00;12.73;;;7.80;92.00;;;;;;5029907;28;20033;-76
2020/12/07 08:17:56;;;;;;;22.53;12.57;;;7.90;91.40;;;;;;5029333;28;20041;-77
2020/12/07 08:20:24;;;;;;;23.37;13.30;;;7.90;91.30;;;;;;5029548;28;20045;-76
2020/12/07 08:23:06;;;;;;;22.13;12.93;;;7.90;91.30;;;;;;5011941;28;20048;-77
2020/12/07 08:25:51;;;;;;;24.97;12.07;;;7.90;91.30;;;;;;5030652;28;20040;-78
2020/12/07 08:28:37;;;;;;;22.87;13.20;;;7.90;91.40;;;;;;5029168;28;20128;-78
2020/12/07 08:31:10;;;;;;;22.70;12.27;;;8.00;91.20;;;;;;5030412;28;20542;-78
2020/12/07 08:34:00;;;;;;;24.77;13.90;;;8.00;91.20;;;;;;5030058;28;20038;-76
2020/12/07 08:36:31;;;;;;;21.50;12.98;;;8.00;91.20;;;;;;5012569;28;20092;-78
2020/12/07 08:38:58;;;;;;;21.40;12.88;;;8.00;91.10;;;;;;5030755;28;20152;-78
2020/12/07 08:41:28;;;;;;;21.67;11.87;;;7.90;91.10;;;;;;5030257;28;20033;-79
2020/12/07 08:44:00;;;;;;;22.77;12.47;;;7.90;91.00;;;;;;5030052;28;20037;-78
2020/12/07 08:46:28;;;;;;;22.87;12.53;;;7.90;91.00;;;;;;5030098;28;20046;-78
2020/12/07 08:48:55;;;;;;;22.33;12.50;;;7.90;91.00;;;;;;5029135;28;20410;-77
2020/12/07 08:51:25;;;;;;;21.57;12.33;;;7.90;91.00;;;;;;5030591;28;20034;-77
2020/12/07 08:53:52;;;;;;;22.42;12.93;;;8.00;91.00;;;;;;5033953;28;20494;-78
2020/12/07 08:56:18;;;;;;;23.07;13.33;;;8.00;91.00;;;;;;5034374;28;20414;-78
2020/12/07 08:58:44;;;;;;;25.07;13.50;;;8.00;90.90;;;;;;5034458;28;20407;-69
2020/12/07 09:01:10;;;;;;;22.00;12.80;;;8.00;90.90;;;;;;5034132;28;20049;-69
2020/12/07 09:03:37;;;;;;;21.60;12.77;;;8.00;90.90;;;;;;5033201;28;20083;-68
2020/12/07 09:06:04;;;;;;;21.77;13.03;;;8.00;90.90;;;;;;5034096;28;20057;-68
2020/12/07 09:08:31;;;;;;;21.37;13.00;;;8.00;90.90;;;;;;5034070;28;20037;-70
2020/12/07 09:10:57;;;;;;;24.03;12.87;;;8.00;90.90;;;;;;5032313;28;20116;-69
2020/12/07 09:13:24;;;;;;;24.13;13.07;;;8.00;90.90;;;;;;5033393;28;20125;-69
2020/12/07 09:15:50;;;;;;;23.30;14.20;;;8.00;90.90;;;;;;5032331;28;20041;-68
2020/12/07 09:18:16;;;;;;;23.43;13.00;;;8.10;90.80;;;;;;5032628;28;20419;-70
2020/12/07 09:20:42;;;;;;;22.23;13.30;;;8.00;90.80;;;;;;5033735;28;20045;-69
2020/12/07 09:23:07;;;;;;;22.70;12.87;;;8.00;90.80;;;;;;5032874;28;20045;-69
2020/12/07 09:25:33;;;;;;;22.53;12.63;;;8.10;90.80;;;;;;5033645;28;20041;-69
2020/12/07 09:27:59;;;;;;;22.13;12.93;;;8.10;90.80;;;;;;5033275;28;20129;-69
2020/12/07 09:30:25;;;;;;;20.93;12.67;;;8.00;90.80;;;;;;5033775;28;20501;-68
2020/12/07 09:32:51;;;;;;;20.77;12.67;;;8.10;90.90;;;;;;5031768;28;20354;-69
2020/12/07 09:35:18;;;;;;;22.93;12.90;;;8.10;90.80;;;;;;5033058;28;20037;-69
2020/12/07 09:37:44;;;;;;;20.33;12.20;;;8.10;90.80;;;;;;5032536;28;20041;-69
2020/12/07 09:40:13;;;;;;;21.77;12.93;;;8.10;90.70;;;;;;5031773;28;20045;-69
2020/12/07 09:42:40;;;;;;;22.67;13.23;;;8.10;90.70;;;;;;5032971;28;20049;-70
2020/12/07 09:45:10;;;;;;;20.23;12.40;;;8.10;90.80;;;;;;5015113;28;20060;-69
2020/12/07 09:47:36;;;;;;;25.17;12.40;;;8.10;90.80;;;;;;5032090;28;20073;-69
2020/12/07 09:50:07;;;;;;;21.03;12.53;;;8.10;90.70;;;;;;5032091;28;20041;-68
2020/12/07 09:52:33;;;;;;;21.20;12.60;;;8.10;90.80;;;;;;5032317;28;20026;-67
2020/12/07 09:54:59;;;;;;;23.00;13.20;;;8.10;90.80;;;;;;5031710;28;20033;-69
2020/12/07 09:57:24;;;;;;;21.43;12.90;;;8.10;90.70;;;;;;5032787;28;20517;-69
2020/12/07 09:59:50;;;;;;;21.43;12.53;;;8.10;90.70;;;;;;5033741;28;20033;-71
2020/12/07 10:02:17;;;;;;;22.03;13.07;;;8.00;90.70;;;;;;5031832;28;20426;-70
2020/12/07 10:04:43;;;;;;;20.50;12.67;;;8.00;90.60;;;;;;5014959;28;20449;-72
2020/12/07 10:07:09;;;;;;;22.43;13.80;;;8.00;90.70;;;;;;5032894;28;20037;-71
2020/12/07 10:09:35;;;;;;;21.80;14.40;;;7.90;90.60;;;;;;5030081;28;20033;-70
2020/12/07 10:12:01;;;;;;;23.27;14.30;;;7.90;90.70;;;;;;5032304;28;20033;-71
2020/12/07 10:14:27;;;;;;;26.47;15.70;;;7.90;90.80;;;;;;5032902;28;20113;-71
2020/12/07 10:16:53;;;;;;;24.63;16.27;;;7.90;90.70;;;;;;5031257;28;20049;-71
2020/12/07 10:19:19;;;;;;;25.40;16.83;;;7.80;90.70;;;;;;5015005;28;20033;-70
2020/12/07 10:21:45;;;;;;;26.70;16.20;;;7.80;90.70;;;;;;5031776;28;20053;-71
2020/12/07 10:24:11;;;;;;;26.20;17.17;;;7.80;90.80;;;;;;5015040;28;20034;-72
2020/12/07 10:26:37;;;;;;;22.77;15.20;;;7.80;90.90;;;;;;5030829;28;20512;-72
2020/12/07 10:29:03;;;;;;;28.10;15.23;;;7.80;90.90;;;;;;5032570;28;20071;-71
2020/12/07 10:31:28;;;;;;;28.60;17.20;;;7.80;90.80;;;;;;5032467;28;20029;-72
2020/12/07 10:33:55;;;;;;;27.50;17.23;;;7.80;90.80;;;;;;5031588;28;20127;-71
2020/12/07 10:36:23;;;;;;;26.83;16.77;;;7.80;90.80;;;;;;5032427;28;20029;-72
2020/12/07 10:38:49;;;;;;;28.97;16.43;;;7.70;90.80;;;;;;5031999;28;20057;-72
2020/12/07 10:41:15;;;;;;;35.00;17.37;;;7.80;90.80;;;;;;5032427;28;20437;-70
2020/12/07 10:43:42;;;;;;;25.83;16.83;;;7.70;90.60;;;;;;5030378;28;20103;-72
2020/12/07 10:46:10;;;;;;;24.90;16.83;;;7.70;90.70;;;;;;5031899;28;20084;-72
2020/12/07 10:48:36;;;;;;;29.73;17.23;;;7.60;90.80;;;;;;5030902;28;20529;-72
2020/12/07 10:51:01;;;;;;;27.87;17.50;;;7.60;90.70;;;;;;5031700;28;20037;-72
2020/12/07 10:53:27;;;;;;;28.33;18.17;;;7.60;90.80;;;;;;5013755;28;20041;-71
2020/12/07 10:55:53;;;;;;;28.57;18.07;;;7.60;90.70;;;;;;5030806;28;20029;-72
2020/12/07 10:58:20;;;;;;;28.97;17.83;;;7.60;90.80;;;;;;5030408;28;20045;-71
2020/12/07 11:00:46;;;;;;;27.40;17.87;;;7.60;90.70;;;;;;5031184;28;20098;-78
2020/12/07 11:03:12;;;;;;;29.33;18.07;;;7.50;90.70;;;;;;5029710;28;20563;-77
2020/12/07 11:05:39;;;;;;;29.90;18.87;;;7.50;90.80;;;;;;5030318;28;20065;-78
2020/12/07 11:08:19;;;;;;;32.67;20.23;;;7.50;90.80;;;;;;5031870;28;20045;-78
2020/12/07 11:10:45;;;;;;;28.50;18.20;;;7.50;90.80;;;;;;5030472;28;20048;-78
2020/12/07 11:13:33;;;;;;;29.50;18.53;;;7.40;90.90;;;;;;5031370;28;20133;-77
2020/12/07 11:16:04;;;;;;;30.60;19.10;;;7.40;90.70;;;;;;5028870;28;20120;-78
2020/12/07 11:18:33;;;;;;;28.43;18.47;;;7.40;90.70;;;;;;5031725;28;20038;-77
2020/12/07 11:20:58;;;;;;;30.57;19.10;;;7.30;90.60;;;;;;5031291;28;20061;-78
2020/12/07 11:23:24;;;;;;;30.73;19.60;;;7.30;90.60;;;;;;5031062;28;20070;-78
2020/12/07 11:25:51;;;;;;;29.00;18.37;;;7.30;90.70;;;;;;5013429;28;20041;-78
2020/12/07 11:28:16;;;;;;;30.70;18.83;;;7.30;90.70;;;;;;5031548;28;20052;-78
2020/12/07 11:30:42;;;;;;;29.63;18.43;;;7.30;90.70;;;;;;5030200;28;20037;-78
2020/12/07 11:33:08;;;;;;;31.23;17.23;;;7.20;90.50;;;;;;5030489;28;20037;-78
2020/12/07 11:35:34;;;;;;;31.30;19.23;;;7.20;90.60;;;;;;5031453;28;20087;-78
2020/12/07 11:39:16;;;;;;;29.23;18.20;;;7.20;90.50;;;;;;5030911;28;20422;-77
2020/12/07 11:43:52;;;;;;;29.57;16.83;;;7.00;90.50;;;;;;5029153;28;20112;-78
2020/12/07 11:46:35;;;;;;;28.30;16.80;;;6.90;90.50;;;;;;5030810;28;20044;-78
2020/12/07 11:49:00;;;;;;;28.23;17.00;;;7.00;90.60;;;;;;5031185;28;20045;-77
2020/12/07 11:51:27;;;;;;;30.07;18.00;;;7.00;90.60;;;;;;5029461;28;20051;-78
2020/12/07 11:53:55;;;;;;;31.17;17.70;;;7.00;90.60;;;;;;5030672;28;20395;-76
2020/12/07 11:56:28;;;;;;;28.10;16.47;;;6.90;90.50;;;;;;5029806;28;20038;-78
2020/12/07 11:58:53;;;;;;;32.97;18.27;;;7.00;90.70;;;;;;5031584;28;20049;-78
2020/12/07 12:01:19;;;;;;;30.77;17.70;;;7.10;90.60;;;;;;5030981;28;20563;-78
2020/12/07 12:03:45;;;;;;;30.90;18.00;;;7.10;90.70;;;;;;5030063;28;20037;-78
2020/12/07 12:06:11;;;;;;;34.67;18.63;;;7.10;90.50;;;;;;5030752;28;20051;-78
2020/12/07 12:08:36;;;;;;;31.53;18.77;;;7.10;90.30;;;;;;5030874;28;20045;-78
2020/12/07 12:11:02;;;;;;;33.23;19.10;;;7.10;90.60;;;;;;5030804;28;20044;-78
2020/12/07 12:13:28;;;;;;;33.87;19.43;;;7.00;90.30;;;;;;5030507;28;20033;-77
2020/12/07 12:15:53;;;;;;;33.20;18.73;;;6.90;90.30;;;;;;5029139;28;20095;-78
2020/12/07 12:18:19;;;;;;;33.03;18.63;;;6.90;90.30;;;;;;5030803;28;20132;-78
2020/12/07 12:20:47;;;;;;;31.37;17.90;;;6.80;90.30;;;;;;5029596;28;20042;-78
2020/12/07 12:23:13;;;;;;;29.77;16.87;;;6.80;90.30;;;;;;5029940;28;20033;-77
2020/12/07 12:25:40;;;;;;;29.90;16.57;;;6.70;90.30;;;;;;5013730;28;20120;-77
2020/12/07 12:28:07;;;;;;;30.73;16.93;;;6.70;90.40;;;;;;5016757;28;20037;-77
2020/12/07 12:30:33;;;;;;;33.30;18.33;;;6.70;90.40;;;;;;5034855;28;20044;-77
2020/12/07 12:32:59;;;;;;;29.67;16.10;;;6.70;90.30;;;;;;5034147;28;20030;-77
2020/12/07 12:35:25;;;;;;;30.10;17.80;;;6.70;90.30;;;;;;5034381;28;20042;-78
2020/12/07 12:37:51;;;;;;;31.80;17.67;;;6.70;90.20;;;;;;5033449;28;20090;-78
2020/12/07 12:40:17;;;;;;;31.83;17.90;;;6.70;90.00;;;;;;5034204;28;20046;-77
2020/12/07 12:42:43;;;;;;;28.03;16.77;;;6.70;90.00;;;;;;5032789;28;20037;-78
2020/12/07 12:45:10;;;;;;;30.53;17.63;;;6.60;89.90;;;;;;5034479;28;20407;-77
2020/12/07 12:47:35;;;;;;;28.93;16.77;;;6.60;90.00;;;;;;5034173;28;20045;-77
2020/12/07 12:50:01;;;;;;;25.80;15.43;;;6.60;89.90;;;;;;5033307;28;20040;-78
2020/12/07 12:52:27;;;;;;;26.37;14.40;;;6.50;89.80;;;;;;5033385;28;20045;-77
2020/12/07 12:54:53;;;;;;;23.20;13.80;;;6.50;89.80;;;;;;5034285;28;20517;-78
2020/12/07 12:57:19;;;;;;;21.63;13.60;;;6.50;89.90;;;;;;5034410;28;20516;-78
2020/12/07 12:59:44;;;;;;;20.00;12.37;;;6.60;89.90;;;;;;5034483;28;20033;-72
2020/12/07 13:02:10;;;;;;;18.87;11.50;;;6.60;89.80;;;;;;5033542;28;20038;-71
2020/12/07 13:04:36;;;;;;;20.30;12.33;;;6.60;89.70;;;;;;5033626;28;20064;-71
2020/12/07 13:07:02;;;;;;;20.07;12.43;;;6.60;89.40;;;;;;5034155;28;20490;-70
2020/12/07 13:09:27;;;;;;;18.90;11.63;;;6.70;89.30;;;;;;5032809;28;20056;-71
2020/12/07 13:11:53;;;;;;;20.10;12.23;;;6.60;89.00;;;;;;5033104;28;20453;-70
2020/12/07 13:14:19;;;;;;;18.37;11.70;;;6.60;89.00;;;;;;5016264;28;20383;-71